Terminal Aerodrome Forecast
Issued by NWS

Current Version | Previous Version | Text Only | Print | Product List | Glossary On
Versions: 1 2 3 4 5 6 7 8 9 10 11 12 13 14 15 16 17 18
000
FTUS42 KTAE 241146
TAFECP
TAF
KECP 241146Z 2412/2512 VRB05KT P6SM FEW007
     FM241600 20010KT 6SM -TSRA BKN030CB
     FM242300 20006KT P6SM BKN030=

USA.gov is the U.S. government's official web portal to all federal, state and local government web resources and services.